Weather History for KAIB - April, 2013

Change the Weather History Date:

Monday, April 8, 2013

  Actual Average Record
Temperature  
Mean Temperature 47 °F -  
Max Temperature 59 °F - - ()
Min Temperature 35 °F - - ()
Degree Days  
Heating Degree Days 18    
Moisture  
Dew Point 27 °F    
Average Humidity 49    
Maximum Humidity 87    
Minimum Humidity 21    
Precipitation  
Precipitation 0.00 in - - ()
Sea Level Pressure  
Sea Level Pressure 29.57 in    
Wind  
Wind Speed 11 mph ()    
Max Wind Speed 32 mph    
Max Gust Speed 48 mph    
Visibility 9.7 miles    
Events Rain , Thunderstorm    
T = Trace of Precipitation, MM = Missing Value Source: Averaged Metar Reports

Daily Weather History Graph

Daily Weather History Graph

Search for Another Location

Airport or City:

Trip Planner

Search our weather history database for the weather conditions in past years. The results will help you decide how hot, cold, wet, or windy it might be!

Date:

Astronomy

Apr. 08, 2013 Rise Set
Actual Time 6:48 AM MDT 7:44 PM MDT
Civil Twilight 6:21 AM MDT 8:11 PM MDT
Nautical Twilight 5:49 AM MDT 8:43 PM MDT
Astronomical Twilight 5:16 AM MDT 9:16 PM MDT
Moon 5:38 AM MDT (4/8) 6:22 PM MDT (4/8)
Length of Visible Light 13h 49m
Length of Day
12h 56m
Waning Crescent, 3% of the Moon is Illuminated
Apr 8
Waning Crescent
Apr 10
New
Apr 18
First Quarter
Apr 25
Full
May 2
Last Quarter

Hourly Weather History & Observations

Time (MDT) Temp. Windchill Dew Point Humidity Pressure Visibility Wind Dir Wind Speed Gust Speed Precip Events Conditions
12:15 AM 46.4 °F 41.5 °F 17.6 °F 32% 29.76 in 10.0 mi East 10.4 mph - N/A   Clear
12:35 AM 46.4 °F 41.9 °F 17.6 °F 32% 29.75 in 10.0 mi East 9.2 mph - N/A   Clear
12:55 AM 46.4 °F 42.4 °F 17.6 °F 32% 29.75 in 10.0 mi East 8.1 mph - N/A   Clear
1:15 AM 46.4 °F 44.3 °F 17.6 °F 32% 29.75 in 10.0 mi East 4.6 mph - N/A   Clear
1:35 AM 46.4 °F 42.9 °F 17.6 °F 32% 29.74 in 10.0 mi East 6.9 mph - N/A   Clear
1:55 AM 46.4 °F 42.4 °F 17.6 °F 32% 29.73 in 10.0 mi East 8.1 mph - N/A   Clear
2:15 AM 46.4 °F 42.4 °F 17.6 °F 32% 29.72 in 10.0 mi ESE 8.1 mph - N/A   Clear
2:35 AM 50.0 °F - 14.0 °F 24% 29.71 in 10.0 mi SE 6.9 mph - N/A   Clear
2:55 AM 48.2 °F - 14.0 °F 25% 29.70 in 10.0 mi East 5.8 mph - N/A   Clear
3:15 AM 51.8 °F - 12.2 °F 21% 29.68 in 10.0 mi SSE 6.9 mph - N/A   Clear
3:35 AM 51.8 °F - 12.2 °F 21% 29.67 in 10.0 mi SSE 8.1 mph - N/A   Clear
3:55 AM 50.0 °F - 12.2 °F 22% 29.67 in 10.0 mi SE 4.6 mph - N/A   Clear
4:15 AM 50.0 °F - 12.2 °F 22% 29.65 in 10.0 mi ESE 4.6 mph - N/A   Clear
4:35 AM 50.0 °F - 14.0 °F 24% 29.65 in 10.0 mi SE 5.8 mph - N/A   Clear
4:55 AM 48.2 °F - 14.0 °F 25% 29.64 in 10.0 mi SE 4.6 mph - N/A   Clear
5:15 AM 48.2 °F - 14.0 °F 25% 29.64 in 10.0 mi ESE 5.8 mph - N/A   Clear
5:35 AM 50.0 °F - 14.0 °F 24% 29.64 in 10.0 mi South 9.2 mph - N/A   Scattered Clouds
5:55 AM 51.8 °F - 17.6 °F 26% 29.63 in 10.0 mi South 11.5 mph - N/A   Scattered Clouds
6:15 AM 51.8 °F - 19.4 °F 28% 29.63 in 10.0 mi South 8.1 mph - N/A   Clear
6:35 AM 51.8 °F - 21.2 °F 30% 29.62 in 10.0 mi South 8.1 mph - N/A   Clear
6:55 AM 51.8 °F - 21.2 °F 30% 29.61 in 10.0 mi South 12.7 mph 18.4 mph N/A   Clear
7:15 AM 53.6 °F - 21.2 °F 28% 29.60 in 10.0 mi SSE 16.1 mph 25.3 mph N/A   Clear
7:35 AM 53.6 °F - 21.2 °F 28% 29.60 in 10.0 mi South 18.4 mph 28.8 mph N/A   Clear
7:55 AM 53.6 °F - 23.0 °F 30% 29.60 in 10.0 mi South 17.3 mph 28.8 mph N/A   Clear
8:15 AM 53.6 °F - 23.0 °F 30% 29.58 in 10.0 mi South 19.6 mph 31.1 mph N/A   Clear
8:35 AM 53.6 °F - 23.0 °F 30% 29.58 in 10.0 mi South 23.0 mph 26.5 mph N/A   Clear
8:55 AM 55.4 °F - 23.0 °F 29% 29.57 in 10.0 mi South 24.2 mph 33.4 mph N/A   Clear
9:15 AM 57.2 °F - 23.0 °F 27% 29.55 in 10.0 mi South 28.8 mph 42.6 mph N/A   Clear
9:35 AM 55.4 °F - 24.8 °F 31% 29.55 in 10.0 mi South 32.2 mph 39.1 mph N/A   Clear
9:55 AM 55.4 °F - 24.8 °F 31% 29.55 in 10.0 mi South 31.1 mph 38.0 mph N/A   Clear
10:15 AM 57.2 °F - 26.6 °F 31% 29.54 in 10.0 mi South 32.2 mph 41.4 mph N/A   Clear
10:35 AM 59.0 °F - 26.6 °F 29% 29.53 in 10.0 mi South 29.9 mph 43.7 mph N/A   Clear
10:55 AM 59.0 °F - 26.6 °F 29% 29.53 in 10.0 mi South 29.9 mph 41.4 mph N/A   Clear
11:15 AM 59.0 °F - 28.4 °F 31% 29.53 in 10.0 mi South 28.8 mph 48.3 mph N/A   Clear
11:35 AM 55.4 °F - 26.6 °F 33% 29.53 in 10.0 mi SSW 25.3 mph 38.0 mph N/A   Clear
11:55 AM 53.6 °F - 26.6 °F 35% 29.53 in 10.0 mi SSW 13.8 mph 29.9 mph N/A   Scattered Clouds
12:15 PM 53.6 °F - 30.2 °F 41% 29.53 in 10.0 mi WSW 20.7 mph 34.5 mph N/A Thunderstorm Overcast
12:35 PM 51.8 °F - 28.4 °F 41% 29.53 in 10.0 mi WSW 9.2 mph 21.9 mph N/A   Mostly Cloudy
12:55 PM 53.6 °F - 30.2 °F 41% 29.51 in 10.0 mi South 5.8 mph - N/A Rain Light Rain
1:15 PM 59.0 °F - 28.4 °F 31% 29.48 in 10.0 mi South 21.9 mph 25.3 mph N/A   Scattered Clouds
1:35 PM 59.0 °F - 30.2 °F 34% 29.46 in 10.0 mi SE 18.4 mph 25.3 mph N/A   Scattered Clouds
1:55 PM 57.2 °F - 30.2 °F 36% 29.43 in 10.0 mi SSE 23.0 mph 28.8 mph N/A   Scattered Clouds
2:15 PM 53.6 °F - 30.2 °F 41% 29.43 in 7.0 mi South 17.3 mph 44.9 mph N/A   Mostly Cloudy
2:35 PM 55.4 °F - 28.4 °F 36% 29.43 in 10.0 mi SW 15.0 mph 33.4 mph N/A   Mostly Cloudy
2:55 PM 46.4 °F 38.5 °F 33.8 °F 62% 29.48 in 10.0 mi West 21.9 mph 34.5 mph N/A Thunderstorm Overcast
3:15 PM 44.6 °F 39.2 °F 37.4 °F 76% 29.48 in 10.0 mi West 10.4 mph - N/A Rain Light Rain
3:35 PM 44.6 °F 41.4 °F 37.4 °F 76% 29.45 in 10.0 mi South 5.8 mph 18.4 mph N/A Rain Light Rain
3:55 PM 44.6 °F 36.1 °F 37.4 °F 76% 29.47 in 7.0 mi SSW 21.9 mph 26.5 mph N/A Rain Light Rain
4:15 PM 44.6 °F 36.9 °F 37.4 °F 76% 29.44 in 10.0 mi South 18.4 mph 32.2 mph N/A Rain Light Rain
4:35 PM 44.6 °F 38.8 °F 39.2 °F 81% 29.46 in 7.0 mi SSE 11.5 mph - N/A Rain Light Rain
4:55 PM 42.8 °F 37.5 °F 39.2 °F 87% 29.48 in 5.0 mi SSW 9.2 mph - N/A Rain Light Rain
5:15 PM 42.8 °F 38.6 °F 37.4 °F 81% 29.48 in 10.0 mi SSW 6.9 mph - N/A Rain Light Rain
5:35 PM 42.8 °F 40.1 °F 37.4 °F 81% 29.48 in 10.0 mi SSE 4.6 mph - N/A Rain Light Rain
5:55 PM 42.8 °F 38.0 °F 37.4 °F 81% 29.48 in 10.0 mi SE 8.1 mph - N/A Rain Light Rain
6:15 PM 42.8 °F 38.6 °F 39.2 °F 87% 29.49 in 10.0 mi SE 6.9 mph - N/A Rain Light Rain
6:35 PM 42.8 °F 37.5 °F 37.4 °F 81% 29.50 in 7.0 mi SSE 9.2 mph - N/A Rain Light Rain
6:55 PM 42.8 °F 38.6 °F 39.2 °F 87% 29.50 in 7.0 mi South 6.9 mph - N/A Rain Light Rain
7:15 PM 41.0 °F 30.9 °F 35.6 °F 81% 29.52 in 10.0 mi SW 24.2 mph 29.9 mph N/A Rain Light Rain
7:35 PM 37.4 °F 26.9 °F 33.8 °F 87% 29.54 in 10.0 mi South 20.7 mph 32.2 mph N/A Rain Light Rain
7:55 PM 37.4 °F 27.2 °F 33.8 °F 87% 29.52 in 10.0 mi SSE 19.6 mph 31.1 mph N/A Rain Light Rain
8:15 PM 37.4 °F 28.2 °F 33.8 °F 87% 29.54 in 10.0 mi SSE 16.1 mph 25.3 mph N/A   Overcast
8:35 PM 37.4 °F 30.8 °F 32.0 °F 81% 29.54 in 10.0 mi South 9.2 mph - N/A   Scattered Clouds
8:55 PM 37.4 °F 32.8 °F 32.0 °F 81% 29.55 in 10.0 mi ESE 5.8 mph - N/A   Clear
9:15 PM 35.6 °F 29.2 °F 32.0 °F 87% 29.53 in 10.0 mi East 8.1 mph - N/A   Clear
9:35 PM 37.4 °F 31.4 °F 32.0 °F 81% 29.54 in 10.0 mi North 8.1 mph - N/A   Clear
9:55 PM 37.4 °F 30.3 °F 32.0 °F 81% 29.54 in 10.0 mi East 10.4 mph 17.3 mph N/A   Scattered Clouds
10:15 PM 37.4 °F 33.8 °F 32.0 °F 81% 29.55 in 10.0 mi SE 4.6 mph - N/A   Mostly Cloudy
10:35 PM 37.4 °F 32.1 °F 32.0 °F 81% 29.55 in 10.0 mi ENE 6.9 mph - N/A   Overcast
10:55 PM 37.4 °F 32.8 °F 32.0 °F 81% 29.56 in 10.0 mi East 5.8 mph - N/A   Overcast
11:15 PM 39.2 °F 34.2 °F 32.0 °F 75% 29.55 in 10.0 mi ESE 6.9 mph - N/A   Overcast
11:35 PM 41.0 °F 35.2 °F 30.2 °F 65% 29.57 in 10.0 mi ESE 9.2 mph 20.7 mph N/A   Overcast
11:55 PM 41.0 °F 35.8 °F 30.2 °F 65% 29.57 in 10.0 mi ESE 8.1 mph 16.1 mph N/A   Mostly Cloudy